Terminal Aerodrome Forecast
Issued by NWS Charleston, WV

Current Version | Previous Version | Graphics & Text | Print | Product List | Glossary On
Versions: 1 2 3 4 5 6 7 8 9 10 11 12 13 14 15 16 17 18 19
000
FTUS41 KRLX 250425 AAB
TAFEKN
TAF AMD
KEKN 250425Z 2504/2524 27004KT P6SM SKC
     FM250700 VRB03KT 4SM BR SCT250
     FM250800 VRB03KT 2SM BR SCT250
     FM250900 VRB03KT 1/4SM FG VV001
     FM251200 VRB03KT 4SM BR SCT002
     FM251300 28004KT P6SM SCT250
     FM251700 28007KT P6SM BKN035=

USA.gov is the U.S. government's official web portal to all federal, state and local government web resources and services.